createdAt,value
2023-01-18T00:01:13.038Z,96842.25
2023-01-18T00:03:43.117Z,96829.70
2023-01-18T00:06:12.302Z,96823.98
2023-01-18T00:08:43.278Z,96822.63
2023-01-18T00:11:13.331Z,96823.73
2023-01-18T00:13:42.730Z,96821.00
2023-01-18T00:16:15.978Z,96817.43
2023-01-18T00:18:45.348Z,96819.09
2023-01-18T00:21:14.583Z,96823.18
2023-01-18T00:23:43.890Z,96821.56
2023-01-18T00:26:13.591Z,96821.56
2023-01-18T00:28:45.589Z,96811.73
2023-01-18T00:31:15.602Z,96812.83
2023-01-18T00:33:45.481Z,96818.83
2023-01-18T00:36:14.721Z,96806.83
2023-01-18T00:38:43.984Z,96812.83
2023-01-18T00:41:13.395Z,96811.73
2023-01-18T00:43:42.562Z,96809.01
2023-01-18T00:46:15.588Z,96801.38
2023-01-18T00:48:45.194Z,96803.30
2023-01-18T00:51:15.278Z,96793.20
2023-01-18T00:53:47.091Z,96806.84
2023-01-18T00:56:17.605Z,96809.02
2023-01-18T00:58:47.010Z,96812.84
2023-01-18T01:01:16.366Z,96818.03
2023-01-18T01:04:03.350Z,96829.45
2023-01-18T01:06:46.377Z,96841.47
2023-01-18T01:09:16.640Z,96854.54
2023-01-18T01:11:47.304Z,96857.56
2023-01-18T01:14:33.904Z,96856.20
2023-01-18T01:17:22.276Z,96865.19
2023-01-18T01:20:08.951Z,96878.00
2023-01-18T01:22:57.143Z,96887.80
2023-01-18T01:25:43.912Z,96888.91
2023-01-18T01:28:13.215Z,96893.25
2023-01-18T01:30:43.254Z,96900.62
2023-01-18T01:33:12.515Z,96905.81
2023-01-18T01:35:42.506Z,96905.26
2023-01-18T01:38:12.600Z,96902.79
2023-01-18T01:40:42.537Z,96899.80
2023-01-18T01:43:13.795Z,96903.34
2023-01-18T01:45:43.164Z,96903.89
2023-01-18T01:48:12.441Z,96907.69
2023-01-18T01:50:42.763Z,96913.69
2023-01-18T01:53:12.575Z,96914.53
2023-01-18T01:55:43.465Z,96910.96
2023-01-18T01:58:13.065Z,96918.07
2023-01-18T02:00:42.570Z,96917.52
2023-01-18T02:03:13.585Z,96921.86
2023-01-18T02:05:43.829Z,96934.68
2023-01-18T02:08:13.168Z,96932.50
2023-01-18T02:10:42.783Z,96926.24
2023-01-18T02:13:12.702Z,96929.52
2023-01-18T02:15:55.991Z,96934.67
2023-01-18T02:18:29.865Z,96939.31
2023-01-18T02:21:06.804Z,96938.20
2023-01-18T02:23:49.661Z,96929.52
2023-01-18T02:26:29.511Z,96933.05
2023-01-18T02:29:00.423Z,96957.02
2023-01-18T02:31:30.776Z,96975.00
2023-01-18T02:34:01.433Z,96993.27
2023-01-18T02:36:34.911Z,96991.91
2023-01-18T02:39:10.701Z,96990.55
2023-01-18T02:42:04.246Z,96994.64
2023-01-18T02:44:51.949Z,96999.00
2023-01-18T02:47:21.172Z,96994.66
2023-01-18T02:49:50.420Z,97017.28
2023-01-18T02:52:36.067Z,97013.47
2023-01-18T02:55:05.399Z,97004.73
2023-01-18T02:57:34.760Z,97001.20
2023-01-18T03:00:04.193Z,96997.38
2023-01-18T03:02:33.463Z,96994.40
2023-01-18T03:05:02.816Z,96991.16
2023-01-18T03:07:33.610Z,96987.33
2023-01-18T03:10:03.474Z,96984.89
2023-01-18T03:12:49.040Z,96992.52
2023-01-18T03:15:25.816Z,96981.35
2023-01-18T03:17:56.348Z,96977.78
2023-01-18T03:20:29.747Z,96999.89
2023-01-18T03:23:17.632Z,96995.80
2023-01-18T03:25:53.478Z,96979.44
2023-01-18T03:28:47.676Z,96977.27
2023-01-18T03:31:35.696Z,96972.63
2023-01-18T03:34:15.391Z,96978.08
2023-01-18T03:36:45.765Z,96963.34
2023-01-18T03:39:17.004Z,96971.25
2023-01-18T03:41:46.881Z,96945.06
2023-01-18T03:44:17.618Z,96948.89
2023-01-18T03:46:46.804Z,96949.99
2023-01-18T03:49:15.910Z,96946.16
2023-01-18T03:51:49.618Z,96936.06
2023-01-18T03:54:25.001Z,96907.17
2023-01-18T03:56:55.974Z,96924.89
2023-01-18T03:59:45.820Z,96928.44
2023-01-18T04:02:15.098Z,96921.87
2023-01-18T04:04:44.364Z,96951.36
2023-01-18T04:07:13.747Z,96955.97
2023-01-18T04:09:42.901Z,96948.05
2023-01-18T04:12:12.872Z,96961.42
2023-01-18T04:14:42.194Z,96938.50
2023-01-18T04:17:11.896Z,96963.88
2023-01-18T04:19:42.137Z,96972.03
2023-01-18T04:22:11.975Z,96992.48
2023-01-18T04:24:41.962Z,96990.86
2023-01-18T04:27:12.283Z,96960.86
2023-01-18T04:29:42.326Z,96983.23
2023-01-18T04:32:12.132Z,96974.50
2023-01-18T04:34:41.900Z,96980.21
2023-01-18T04:37:12.084Z,96963.85
2023-01-18T04:39:42.103Z,96973.13
2023-01-18T04:42:12.036Z,96957.84
2023-01-18T04:44:42.073Z,96955.96
2023-01-18T04:47:12.104Z,96955.96
2023-01-18T04:49:42.277Z,96965.50
2023-01-18T04:52:12.073Z,96973.39
2023-01-18T04:54:42.040Z,96972.03
2023-01-18T04:57:11.113Z,96981.86
2023-01-18T04:59:42.084Z,96966.87
2023-01-18T05:02:12.279Z,96964.69
2023-01-18T05:04:42.848Z,96969.85
2023-01-18T05:07:12.132Z,96961.13
2023-01-18T05:09:42.119Z,96960.86
2023-01-18T05:12:12.160Z,96946.97
2023-01-18T05:14:44.519Z,96945.05
2023-01-18T05:17:14.457Z,96944.50
2023-01-18T05:19:43.539Z,96940.41
2023-01-18T05:22:12.795Z,96925.42
2023-01-18T05:24:42.175Z,96920.52
2023-01-18T05:27:13.495Z,96914.77
2023-01-18T05:29:42.591Z,96905.78
2023-01-18T05:32:12.357Z,96896.80
2023-01-18T05:34:42.135Z,96903.05
2023-01-18T05:37:12.301Z,96901.98
2023-01-18T05:39:42.308Z,96898.97
2023-01-18T05:42:12.250Z,96901.69
2023-01-18T05:44:42.267Z,96897.89
2023-01-18T05:47:12.257Z,96886.99
2023-01-18T05:49:42.258Z,96884.53
2023-01-18T05:52:12.612Z,96886.98
2023-01-18T05:54:42.212Z,96893.55
2023-01-18T05:57:12.655Z,96890.82
2023-01-18T05:59:42.289Z,96886.73
2023-01-18T06:02:11.509Z,96875.53
2023-01-18T06:04:41.325Z,96876.35
2023-01-18T06:07:11.426Z,96872.00
2023-01-18T06:09:42.894Z,96870.64
2023-01-18T06:12:12.235Z,96859.19
2023-01-18T06:14:42.363Z,96857.56
2023-01-18T06:17:12.475Z,96850.75
2023-01-18T06:19:42.441Z,96845.30
2023-01-18T06:22:11.816Z,96843.13
2023-01-18T06:24:41.351Z,96843.13
2023-01-18T06:27:11.399Z,96844.48
2023-01-18T06:29:41.483Z,96844.75
2023-01-18T06:32:11.492Z,96834.66
2023-01-18T06:34:41.429Z,96830.86
2023-01-18T06:37:11.565Z,96832.48
2023-01-18T06:39:41.333Z,96824.86
2023-01-18T06:42:11.486Z,96836.02
2023-01-18T06:44:42.333Z,96830.05
2023-01-18T06:47:12.367Z,96833.33
2023-01-18T06:49:42.371Z,96828.95
2023-01-18T06:52:12.491Z,96826.77
2023-01-18T06:54:42.404Z,96824.05
2023-01-18T06:57:12.938Z,96823.23
2023-01-18T06:59:42.502Z,96821.88
2023-01-18T07:02:13.356Z,96823.50
2023-01-18T07:04:44.676Z,96827.03
2023-01-18T07:07:14.286Z,96826.77
2023-01-18T07:09:43.490Z,96829.23
2023-01-18T07:12:13.300Z,96829.50
2023-01-18T07:14:44.937Z,96821.06
2023-01-18T07:17:14.134Z,96834.39
2023-01-18T07:19:43.368Z,96833.03
2023-01-18T07:22:13.373Z,96839.84
2023-01-18T07:24:43.350Z,96848.86
2023-01-18T07:27:13.275Z,96859.76
2023-01-18T07:29:43.360Z,96866.28
2023-01-18T07:32:12.663Z,96874.73
2023-01-18T07:34:42.409Z,96876.10
2023-01-18T07:37:12.539Z,96866.56
2023-01-18T07:39:42.417Z,96865.72
2023-01-18T07:42:13.505Z,96850.22
2023-01-18T07:44:43.457Z,96835.78
2023-01-18T07:47:12.634Z,96833.06
2023-01-18T07:49:42.553Z,96830.05
2023-01-18T07:52:12.565Z,96818.34
2023-01-18T07:54:42.437Z,96812.89
2023-01-18T07:57:12.519Z,96816.16
2023-01-18T07:59:42.880Z,96789.73
2023-01-18T08:02:14.503Z,96781.56
2023-01-18T08:04:44.201Z,96774.75
2023-01-18T08:07:15.065Z,96772.31
2023-01-18T08:09:44.380Z,96760.58
2023-01-18T08:12:18.256Z,96749.17
2023-01-18T08:14:47.624Z,96738.80
2023-01-18T08:17:16.943Z,96724.10
2023-01-18T08:19:46.144Z,96728.73
2023-01-18T08:22:15.368Z,96725.17
2023-01-18T08:24:45.095Z,96724.88
2023-01-18T08:27:14.671Z,96726.25
2023-01-18T08:29:43.855Z,96721.06
2023-01-18T08:32:13.525Z,96715.91
2023-01-18T08:34:43.588Z,96717.27
2023-01-18T08:37:13.460Z,96714.25
2023-01-18T08:39:43.479Z,96720.80
2023-01-18T08:42:13.737Z,96720.80
2023-01-18T08:44:43.509Z,96715.91
2023-01-18T08:47:13.500Z,96717.01
2023-01-18T08:49:43.506Z,96707.48
2023-01-18T08:52:14.450Z,96708.00
2023-01-18T08:54:43.705Z,96706.93
2023-01-18T08:57:13.465Z,96710.72
2023-01-18T08:59:43.545Z,96690.04
2023-01-18T09:02:13.615Z,96667.16
2023-01-18T09:04:45.215Z,96671.79
2023-01-18T09:07:14.475Z,96666.09
2023-01-18T09:09:43.673Z,96648.94
2023-01-18T09:12:14.013Z,96655.74
2023-01-18T09:14:43.774Z,96657.92
2023-01-18T09:17:13.096Z,96644.30
2023-01-18T09:19:42.752Z,96643.50
2023-01-18T09:22:13.080Z,96617.89
2023-01-18T09:24:43.659Z,96634.23
2023-01-18T09:27:14.808Z,96650.30
2023-01-18T09:29:44.049Z,96646.22
2023-01-18T09:32:13.325Z,96626.88
2023-01-18T09:34:49.571Z,96611.09
2023-01-18T09:37:23.636Z,96598.03
2023-01-18T09:39:52.979Z,96601.85
2023-01-18T09:42:31.816Z,96601.05
2023-01-18T09:45:00.920Z,96598.03
2023-01-18T09:47:31.594Z,96593.95
2023-01-18T09:50:04.315Z,96590.97
2023-01-18T09:52:53.230Z,96603.77
2023-01-18T09:55:24.019Z,96615.73
2023-01-18T09:58:17.897Z,96605.13
2023-01-18T10:01:31.688Z,96598.33
2023-01-18T10:10:02.408Z,96683.78
2023-01-18T10:15:32.627Z,96627.72
2023-01-18T10:18:02.213Z,96669.11
2023-01-18T10:20:48.701Z,96662.56
2023-01-18T10:23:33.509Z,96654.95
2023-01-18T10:26:10.234Z,96643.25
2023-01-18T10:28:51.234Z,96653.33
2023-01-18T10:34:18.288Z,96631.55
2023-01-18T10:36:48.183Z,96645.16
2023-01-18T10:39:18.797Z,96637.52
2023-01-18T10:41:48.043Z,96656.56
2023-01-18T10:44:17.537Z,96657.11
2023-01-18T10:46:47.188Z,96644.61
2023-01-18T10:49:34.567Z,96642.44
2023-01-18T10:52:23.649Z,96645.70
2023-01-18T10:55:01.422Z,96637.25
2023-01-18T10:57:31.837Z,96624.75
2023-01-18T11:00:01.039Z,96628.54
2023-01-18T11:02:31.833Z,96641.08
2023-01-18T11:05:02.396Z,96652.52
2023-01-18T11:07:31.596Z,96648.95
2023-01-18T11:10:04.438Z,96633.72
2023-01-18T11:12:44.066Z,96631.00
2023-01-18T11:15:18.090Z,96610.84
2023-01-18T11:17:58.703Z,96601.61
2023-01-18T11:20:45.767Z,96605.15
2023-01-18T11:23:19.110Z,96611.14
2023-01-18T11:25:52.964Z,96611.69
2023-01-18T11:28:29.634Z,96604.34
2023-01-18T11:31:09.996Z,96598.08
2023-01-18T11:33:41.349Z,96606.51
2023-01-18T11:36:11.432Z,96610.59
2023-01-18T11:38:42.282Z,96598.89
2023-01-18T11:41:19.036Z,96586.91
2023-01-18T11:44:08.543Z,96602.72
2023-01-18T11:46:42.566Z,96601.06
2023-01-18T11:49:13.581Z,96596.73
2023-01-18T11:51:45.775Z,96590.99
2023-01-18T11:54:26.528Z,96591.55
2023-01-18T11:56:58.864Z,96594.55
2023-01-18T11:59:37.528Z,96596.98
2023-01-18T12:02:24.606Z,96598.90
2023-01-18T12:05:01.396Z,96598.90
2023-01-18T12:07:35.006Z,96599.45
2023-01-18T12:10:04.313Z,96597.28
2023-01-18T12:12:50.081Z,96601.91
2023-01-18T12:15:23.687Z,96610.07
2023-01-18T12:18:13.085Z,96610.88
2023-01-18T12:20:35.279Z,96622.31
2023-01-18T12:23:05.929Z,96619.05
2023-01-18T12:25:39.833Z,96621.48
2023-01-18T12:28:10.489Z,96635.08
2023-01-18T12:30:44.830Z,96653.87
2023-01-18T12:33:38.265Z,96655.48
2023-01-18T12:35:59.228Z,96658.48
2023-01-18T12:38:29.996Z,96661.20
2023-01-18T12:41:12.890Z,96672.38
2023-01-18T12:44:02.073Z,96677.80
2023-01-18T12:46:35.492Z,96679.44
2023-01-18T12:49:08.888Z,96682.16
2023-01-18T12:51:38.282Z,96702.84
2023-01-18T12:54:08.795Z,96720.25
2023-01-18T12:56:39.536Z,96715.91
2023-01-18T12:59:09.693Z,96725.98
2023-01-18T13:01:43.453Z,96733.89
2023-01-18T13:04:17.253Z,96738.80
2023-01-18T13:06:46.556Z,96743.69
2023-01-18T13:09:17.302Z,96743.69
2023-01-18T13:11:46.446Z,96739.33
2023-01-18T13:14:33.838Z,96741.20
2023-01-18T13:17:04.397Z,96760.83
2023-01-18T13:19:34.948Z,96781.00
2023-01-18T13:22:14.631Z,96809.32
2023-01-18T13:25:01.860Z,96800.04
2023-01-18T13:27:32.212Z,96795.69
2023-01-18T13:30:02.751Z,96790.23
2023-01-18T13:32:32.834Z,96803.04
2023-01-18T13:35:19.717Z,96814.45
2023-01-18T13:37:44.136Z,96814.75
2023-01-18T13:40:30.013Z,96807.63
2023-01-18T13:42:59.568Z,96798.63
2023-01-18T13:45:32.013Z,96808.17
2023-01-18T13:48:08.562Z,96824.53
2023-01-18T13:50:39.224Z,96844.43
2023-01-18T13:53:18.850Z,96851.80
2023-01-18T13:55:58.396Z,96853.97
2023-01-18T13:58:28.053Z,96825.09
2023-01-18T14:00:58.819Z,96839.53
2023-01-18T14:03:28.911Z,96840.08
2023-01-18T14:06:01.159Z,96847.42
2023-01-18T14:08:31.658Z,96872.25
2023-01-18T14:11:02.689Z,96879.88
2023-01-18T14:13:36.130Z,96868.97
2023-01-18T14:16:05.942Z,96864.88
2023-01-18T14:18:35.405Z,96874.16
2023-01-18T14:21:09.060Z,96880.43
2023-01-18T14:23:42.273Z,96887.25
2023-01-18T14:26:13.142Z,96889.97
2023-01-18T14:28:49.250Z,96864.08
2023-01-18T14:31:22.792Z,96858.63
2023-01-18T14:33:52.068Z,96848.52
2023-01-18T14:36:22.550Z,96853.98
2023-01-18T14:38:53.276Z,96864.07
2023-01-18T14:41:22.495Z,96871.15
2023-01-18T14:43:52.636Z,96872.52
2023-01-18T14:46:25.476Z,96844.73
2023-01-18T14:48:55.439Z,96827.82
2023-01-18T14:51:25.128Z,96822.92
2023-01-18T14:54:01.621Z,96815.55
2023-01-18T14:56:31.235Z,96807.08
2023-01-18T14:59:01.016Z,96805.72
2023-01-18T15:01:40.993Z,96783.91
2023-01-18T15:04:21.354Z,96782.55
2023-01-18T15:06:50.933Z,96784.76
2023-01-18T15:09:20.580Z,96744.13
2023-01-18T15:11:50.187Z,96720.14
2023-01-18T15:14:28.996Z,96714.40
2023-01-18T15:16:58.395Z,96711.67
2023-01-18T15:19:35.148Z,96679.25
2023-01-18T15:22:07.597Z,96658.25
2023-01-18T15:24:39.051Z,96625.55
2023-01-18T15:27:08.354Z,96618.47
2023-01-18T15:29:37.537Z,96629.09
2023-01-18T15:32:14.314Z,96631.81
2023-01-18T15:34:45.068Z,96585.48
2023-01-18T15:37:18.756Z,96605.66
2023-01-18T15:39:56.882Z,96659.64
2023-01-18T15:42:27.685Z,96704.61
2023-01-18T15:44:56.822Z,96665.09
2023-01-18T15:47:26.634Z,96692.35
2023-01-18T15:49:57.206Z,96649.55
2023-01-18T15:52:36.952Z,96671.65
2023-01-18T15:55:07.616Z,96716.33
2023-01-18T15:57:37.369Z,96676.55
2023-01-18T16:00:06.937Z,96712.55
2023-01-18T16:02:36.302Z,96689.38
2023-01-18T16:05:13.258Z,96702.19
2023-01-18T16:07:46.116Z,96710.08
2023-01-18T16:10:27.172Z,96706.55
2023-01-18T16:12:58.045Z,96711.73
2023-01-18T16:15:31.666Z,96725.38
2023-01-18T16:18:02.620Z,96719.38
2023-01-18T16:20:32.209Z,96721.28
2023-01-18T16:23:06.284Z,96728.65
2023-01-18T16:25:35.542Z,96739.27
2023-01-18T16:28:05.145Z,96722.91
2023-01-18T16:30:39.097Z,96694.84
2023-01-18T16:33:11.480Z,96702.48
2023-01-18T16:35:42.684Z,96705.20
2023-01-18T16:38:13.053Z,96706.02
2023-01-18T16:40:44.052Z,96714.48
2023-01-18T16:43:30.255Z,96707.42
2023-01-18T16:45:59.918Z,96708.48
2023-01-18T16:48:29.264Z,96704.14
2023-01-18T16:50:59.792Z,96695.42
2023-01-18T16:53:30.495Z,96696.23
2023-01-18T16:55:59.743Z,96689.41
2023-01-18T16:58:29.593Z,96681.80
2023-01-18T17:01:08.160Z,96679.63
2023-01-18T17:03:37.523Z,96687.51
2023-01-18T17:06:07.139Z,96681.25
2023-01-18T17:08:36.741Z,96694.88
2023-01-18T17:11:06.376Z,96687.25
2023-01-18T17:13:35.689Z,96697.34
2023-01-18T17:16:05.038Z,96701.69
2023-01-18T17:18:34.589Z,96695.69
2023-01-18T17:21:03.889Z,96702.24
2023-01-18T17:23:33.145Z,96693.52
2023-01-18T17:26:02.615Z,96683.98
2023-01-18T17:28:31.898Z,96671.45
2023-01-18T17:31:01.512Z,96676.91
2023-01-18T17:33:31.418Z,96674.19
2023-01-18T17:36:00.703Z,96666.02
2023-01-18T17:40:59.984Z,96645.83
2023-01-18T17:43:34.047Z,96649.91
2023-01-18T17:46:02.127Z,96633.00
2023-01-18T17:48:31.476Z,96626.18
2023-01-18T17:51:00.710Z,96624.55
2023-01-18T17:53:30.108Z,96620.16
2023-01-18T17:55:59.362Z,96613.62
2023-01-18T17:58:28.620Z,96609.22
2023-01-18T18:00:58.092Z,96605.38
2023-01-18T18:03:27.332Z,96602.12
2023-01-18T18:06:00.587Z,96603.72
2023-01-18T18:08:30.005Z,96598.26
2023-01-18T18:11:00.659Z,96593.34
2023-01-18T18:13:30.270Z,96592.77
2023-01-18T18:15:59.675Z,96582.94
2023-01-18T18:18:29.004Z,96585.38
2023-01-18T18:20:58.774Z,96567.89
2023-01-18T18:23:28.360Z,96558.06
2023-01-18T18:26:18.084Z,96554.77
2023-01-18T18:28:47.588Z,96552.30
2023-01-18T18:31:17.434Z,96547.64
2023-01-18T18:33:46.728Z,96544.94
2023-01-18T18:36:17.353Z,96535.67
2023-01-18T18:38:46.735Z,96535.67
2023-01-18T18:41:16.063Z,96530.47
2023-01-18T18:43:45.659Z,96525.02
2023-01-18T18:46:15.762Z,96524.77
2023-01-18T18:48:45.659Z,96517.66
2023-01-18T18:51:15.528Z,96517.66
2023-01-18T18:53:45.617Z,96505.39
2023-01-18T18:56:15.755Z,96509.48
2023-01-18T18:58:44.965Z,96499.94
2023-01-18T19:01:21.675Z,96496.13
2023-01-18T19:03:51.658Z,96493.41
2023-01-18T19:06:20.841Z,96487.95
2023-01-18T19:08:50.148Z,96490.93
2023-01-18T19:11:19.531Z,96478.66
2023-01-18T19:13:49.700Z,96476.48
2023-01-18T19:16:19.311Z,96475.67
2023-01-18T19:18:48.713Z,96470.75
2023-01-18T19:21:19.121Z,96462.04
2023-01-18T19:23:48.829Z,96456.58
2023-01-18T19:26:19.214Z,96451.13
2023-01-18T19:28:48.775Z,96450.02
2023-01-18T19:31:18.229Z,96440.47
2023-01-18T19:33:47.527Z,96440.75
2023-01-18T19:36:18.443Z,96438.58
2023-01-18T19:38:52.696Z,96436.66
2023-01-18T19:41:19.393Z,96432.04
2023-01-18T19:43:50.376Z,96418.68
2023-01-18T19:46:20.992Z,96423.02
2023-01-18T19:48:50.128Z,96424.13
2023-01-18T19:51:23.257Z,96418.68
2023-01-18T19:53:50.135Z,96405.84
2023-01-18T19:56:19.380Z,96404.23
2023-01-18T19:58:48.735Z,96398.48
2023-01-18T20:01:26.789Z,96400.95
2023-01-18T20:03:48.660Z,96400.14
2023-01-18T20:06:18.511Z,96395.25
2023-01-18T20:08:47.705Z,96396.33
2023-01-18T20:11:17.012Z,96402.63
2023-01-18T20:13:47.604Z,96405.34
2023-01-18T20:16:16.887Z,96402.06
2023-01-18T20:18:46.455Z,96397.97
2023-01-18T20:21:16.109Z,96401.26
2023-01-18T20:23:46.076Z,96392.55
2023-01-18T20:26:20.008Z,96402.63
2023-01-18T20:28:47.399Z,96395.80
2023-01-18T20:31:16.620Z,96395.80
2023-01-18T20:33:46.611Z,96393.91
2023-01-18T20:36:15.982Z,96384.61
2023-01-18T20:38:46.107Z,96379.16
2023-01-18T20:41:16.091Z,96384.08
2023-01-18T20:43:46.215Z,96387.34
2023-01-18T20:46:15.734Z,96388.17
2023-01-18T20:48:49.497Z,96384.36
2023-01-18T20:51:19.060Z,96393.34
2023-01-18T20:53:48.245Z,96388.45
2023-01-18T20:56:28.928Z,96392.55
2023-01-18T20:58:48.249Z,96394.46
2023-01-18T21:01:17.514Z,96399.36
2023-01-18T21:03:47.110Z,96400.98
2023-01-18T21:06:17.056Z,96396.08
2023-01-18T21:08:46.240Z,96400.72
2023-01-18T21:11:16.936Z,96404.53
2023-01-18T21:13:46.082Z,96398.00
2023-01-18T21:16:15.467Z,96396.63
2023-01-18T21:18:45.726Z,96399.36
2023-01-18T21:21:15.987Z,96405.88
2023-01-18T21:23:45.965Z,96392.55
2023-01-18T21:26:16.128Z,96399.36
2023-01-18T21:28:48.575Z,96402.09
2023-01-18T21:31:17.894Z,96403.70
2023-01-18T21:33:47.212Z,96416.25
2023-01-18T21:36:18.291Z,96412.16
2023-01-18T21:38:50.065Z,96408.59
2023-01-18T21:41:36.752Z,96416.25
2023-01-18T21:44:23.530Z,96414.89
2023-01-18T21:46:52.936Z,96408.33
2023-01-18T21:52:27.509Z,96423.02
2023-01-18T21:54:56.756Z,96423.86
2023-01-18T21:57:26.219Z,96430.12
2023-01-18T21:59:56.172Z,96436.38
2023-01-18T22:02:25.517Z,96436.38
2023-01-18T22:05:04.890Z,96433.91
2023-01-18T22:07:35.199Z,96444.81
2023-01-18T22:10:06.391Z,96446.46
2023-01-18T22:12:36.432Z,96450.55
2023-01-18T22:15:06.137Z,96457.91
2023-01-18T22:17:36.827Z,96455.17
2023-01-18T22:20:06.223Z,96459.52
2023-01-18T22:22:35.637Z,96458.71
2023-01-18T22:25:07.555Z,96464.42
2023-01-18T22:27:36.868Z,96466.59
2023-01-18T22:30:06.711Z,96473.14
2023-01-18T22:32:35.995Z,96474.20
2023-01-18T22:35:05.291Z,96481.85
2023-01-18T22:37:34.659Z,96481.30
2023-01-18T22:40:03.837Z,96483.47
2023-01-18T22:42:33.235Z,96490.55
2023-01-18T22:45:02.561Z,96498.20
2023-01-18T22:47:31.866Z,96499.81
2023-01-18T22:50:02.235Z,96499.26
2023-01-18T22:52:33.088Z,96503.08
2023-01-18T22:55:02.372Z,96501.16
2023-01-18T22:57:31.585Z,96489.44
2023-01-18T23:00:00.797Z,96495.14
2023-01-18T23:02:30.057Z,96497.88
2023-01-18T23:04:59.242Z,96495.95
2023-01-18T23:07:28.780Z,96485.84
2023-01-18T23:09:58.119Z,96495.13
2023-01-18T23:12:28.987Z,96490.48
2023-01-18T23:15:15.893Z,96491.03
2023-01-18T23:17:45.974Z,96487.75
2023-01-18T23:20:15.837Z,96490.22
2023-01-18T23:22:46.008Z,96490.78
2023-01-18T23:25:15.486Z,96494.87
2023-01-18T23:27:45.412Z,96492.95
2023-01-18T23:30:15.569Z,96495.40
2023-01-18T23:32:45.538Z,96502.77
2023-01-18T23:35:15.322Z,96503.87
2023-01-18T23:37:45.508Z,96509.32
2023-01-18T23:40:33.298Z,96503.87
2023-01-18T23:43:19.794Z,96513.13
2023-01-18T23:46:07.140Z,96517.50
2023-01-18T23:48:54.070Z,96524.05
2023-01-18T23:51:40.637Z,96519.95
2023-01-18T23:54:19.683Z,96522.98
2023-01-18T23:56:48.951Z,96532.53
2023-01-18T23:59:18.253Z,96538.55
